Central'Nyj Rudnik, Russia
Current Conditions -  °F | °C
As of 8:30 AM on Saturday 29 Nov 2014 (Local Time) from UNEE Reporting Station
Haze Haze  
Wind Chill: -51°   Ceiling: Unl
Heat Index: -29°   Visibility: 3mi
Dew Point: -33°   Wind: 9mph
Humidity: 83%   Direction: 160°SSE
Pressure: 30.83"   Gusts: NA
Location:  55.22°N, 87.65°E
Report Text: UNEE 290130Z 16004MPS 5000 BR SCT200 M34/M36 Q1044 NOSIG RMKQFE759 23451040
Loading
Personal Weather Stations






























Interactive Weather Map New forecast layout! Learn more

10-Day Weather Forecast

Advertisements
Track Severe Weather on mobile